createdAt,value
2019-04-26T00:00:47.086Z,78.60
2019-04-26T00:03:17.256Z,78.60
2019-04-26T00:05:45.811Z,79.10
2019-04-26T00:08:14.353Z,79.40
2019-04-26T00:10:56.551Z,78.30
2019-04-26T00:13:33.089Z,78.50
2019-04-26T00:16:10.143Z,79.20
2019-04-26T00:18:39.591Z,80.30
2019-04-26T00:21:08.088Z,79.80
2019-04-26T00:23:36.717Z,79.90
2019-04-26T00:26:05.550Z,80.00
2019-04-26T00:28:34.003Z,79.30
2019-04-26T00:31:02.791Z,79.50
2019-04-26T00:33:31.253Z,79.30
2019-04-26T00:35:59.787Z,79.10
2019-04-26T00:38:28.653Z,79.20
2019-04-26T00:40:58.791Z,79.70
2019-04-26T00:43:27.325Z,79.80
2019-04-26T00:45:57.152Z,80.50
2019-04-26T00:48:27.227Z,80.10
2019-04-26T00:50:56.840Z,80.90
2019-04-26T00:53:28.462Z,80.00
2019-04-26T00:55:58.463Z,79.90
2019-04-26T00:58:27.769Z,79.90
2019-04-26T01:00:56.317Z,79.40
2019-04-26T01:03:25.070Z,79.10
2019-04-26T01:06:00.142Z,79.80
2019-04-26T01:08:25.542Z,80.00
2019-04-26T01:10:54.032Z,80.50
2019-04-26T01:13:22.764Z,80.50
2019-04-26T01:15:51.252Z,79.60
2019-04-26T01:18:20.184Z,79.30
2019-04-26T01:20:51.348Z,79.20
2019-04-26T01:23:21.147Z,80.00
2019-04-26T01:26:07.670Z,79.50
2019-04-26T01:28:42.147Z,79.30
2019-04-26T01:31:12.259Z,79.60
2019-04-26T01:33:41.919Z,79.40
2019-04-26T01:36:13.062Z,79.40
2019-04-26T01:38:42.047Z,79.60
2019-04-26T01:41:13.975Z,81.40
2019-04-26T01:44:01.870Z,80.10
2019-04-26T01:46:35.333Z,80.10
2019-04-26T01:49:09.743Z,79.50
2019-04-26T01:51:53.326Z,79.70
2019-04-26T01:54:25.758Z,79.40
2019-04-26T01:56:57.521Z,78.30
2019-04-26T01:59:27.351Z,78.20
2019-04-26T02:02:03.819Z,78.90
2019-04-26T02:04:34.566Z,79.00
2019-04-26T02:07:03.530Z,79.40
2019-04-26T02:09:32.746Z,79.10
2019-04-26T02:12:02.277Z,79.10
2019-04-26T02:14:31.148Z,79.10
2019-04-26T02:17:01.392Z,79.10
2019-04-26T02:19:30.236Z,79.50
2019-04-26T02:22:03.680Z,79.80
2019-04-26T02:24:34.394Z,80.00
2019-04-26T02:27:04.551Z,79.60
2019-04-26T02:29:33.156Z,80.60
2019-04-26T02:32:05.150Z,80.30
2019-04-26T02:34:37.160Z,80.30
2019-04-26T02:37:07.277Z,79.80
2019-04-26T02:39:38.816Z,79.20
2019-04-26T02:42:10.363Z,78.20
2019-04-26T02:44:43.600Z,79.20
2019-04-26T02:47:33.183Z,79.00
2019-04-26T02:50:09.472Z,78.90
2019-04-26T02:52:41.441Z,79.10
2019-04-26T02:55:36.897Z,80.10
2019-04-26T02:58:03.612Z,79.50
2019-04-26T03:00:33.955Z,79.80
2019-04-26T03:03:05.615Z,80.30
2019-04-26T03:05:37.633Z,81.20
2019-04-26T03:08:09.861Z,82.10
2019-04-26T03:10:41.336Z,80.70
2019-04-26T03:13:14.606Z,82.60
2019-04-26T03:15:50.972Z,83.40
2019-04-26T03:18:34.605Z,86.20
2019-04-26T03:21:31.969Z,88.30
2019-04-26T03:24:12.391Z,88.90
2019-04-26T03:26:43.935Z,90.30
2019-04-26T03:29:21.307Z,90.60
2019-04-26T03:31:54.721Z,90.80
2019-04-26T03:34:39.287Z,91.30
2019-04-26T03:37:21.690Z,91.20
2019-04-26T03:40:04.006Z,91.30
2019-04-26T03:42:52.114Z,91.20
2019-04-26T03:45:40.762Z,91.40
2019-04-26T03:48:19.695Z,91.60
2019-04-26T03:50:53.770Z,92.30
2019-04-26T03:53:28.309Z,92.60
2019-04-26T03:55:59.860Z,92.60
2019-04-26T03:58:59.564Z,93.10
2019-04-26T04:01:33.038Z,93.20
2019-04-26T04:04:21.107Z,93.20
2019-04-26T04:07:03.311Z,93.60
2019-04-26T04:09:24.064Z,92.90
2019-04-26T04:12:12.391Z,92.90
2019-04-26T04:14:53.122Z,92.90
2019-04-26T04:17:32.157Z,93.00
2019-04-26T04:20:20.335Z,92.90
2019-04-26T04:23:10.001Z,93.10
2019-04-26T04:25:49.693Z,93.40
2019-04-26T04:28:24.367Z,93.20
2019-04-26T04:31:18.521Z,93.20
2019-04-26T04:33:50.088Z,92.30
2019-04-26T04:36:24.655Z,92.10
2019-04-26T04:39:13.010Z,92.10
2019-04-26T04:42:06.642Z,92.80
2019-04-26T04:45:03.442Z,92.40
2019-04-26T04:47:42.645Z,92.50
2019-04-26T04:50:29.149Z,91.40
2019-04-26T04:53:09.526Z,90.40
2019-04-26T04:55:47.886Z,89.80
2019-04-26T04:58:22.664Z,90.60
2019-04-26T05:01:01.779Z,91.10
2019-04-26T05:03:57.536Z,90.70
2019-04-26T05:06:54.888Z,91.10
2019-04-26T05:09:29.366Z,90.90
2019-04-26T05:12:28.549Z,90.90
2019-04-26T05:15:14.152Z,90.90
2019-04-26T05:18:08.173Z,90.70
2019-04-26T05:20:42.738Z,91.00
2019-04-26T05:23:37.088Z,90.90
2019-04-26T05:26:28.597Z,90.70
2019-04-26T05:29:27.346Z,90.70
2019-04-26T05:31:58.878Z,90.90
2019-04-26T05:34:59.345Z,90.50
2019-04-26T05:37:39.866Z,89.60
2019-04-26T05:40:26.481Z,90.50
2019-04-26T05:43:16.274Z,90.10
2019-04-26T05:45:56.083Z,87.00
2019-04-26T05:48:55.701Z,87.40
2019-04-26T05:51:57.943Z,86.20
2019-04-26T05:54:51.145Z,84.60
2019-04-26T05:57:43.548Z,83.10
2019-04-26T06:00:32.930Z,85.10
2019-04-26T06:03:45.783Z,84.40
2019-04-26T06:06:31.023Z,85.90
2019-04-26T06:09:38.372Z,82.50
2019-04-26T06:12:30.096Z,81.60
2019-04-26T06:15:28.454Z,78.80
2019-04-26T06:18:13.699Z,77.30
2019-04-26T06:20:48.001Z,77.00
2019-04-26T06:23:28.157Z,77.80
2019-04-26T06:26:07.228Z,75.60
2019-04-26T06:28:47.748Z,74.80
2019-04-26T06:31:31.468Z,75.30
2019-04-26T06:34:03.108Z,76.20
2019-04-26T06:36:36.371Z,77.80
2019-04-26T06:39:18.125Z,77.40
2019-04-26T06:42:06.265Z,75.50
2019-04-26T06:45:09.225Z,74.20
2019-04-26T06:48:15.612Z,73.50
2019-04-26T06:50:53.201Z,74.70
2019-04-26T06:53:24.729Z,75.80
2019-04-26T06:56:05.004Z,73.70
2019-04-26T06:58:39.489Z,74.40
2019-04-26T07:01:27.128Z,73.60
2019-04-26T07:03:59.647Z,73.00
2019-04-26T07:06:40.463Z,74.00
2019-04-26T07:09:11.774Z,75.00
2019-04-26T07:12:07.198Z,73.90
2019-04-26T07:14:55.576Z,73.80
2019-04-26T07:17:42.291Z,72.90
2019-04-26T07:20:14.920Z,73.10
2019-04-26T07:23:19.792Z,74.30
2019-04-26T07:25:52.973Z,73.70
2019-04-26T07:28:30.486Z,74.10
2019-04-26T07:31:14.038Z,74.40
2019-04-26T07:33:59.136Z,74.40
2019-04-26T07:37:04.666Z,74.10
2019-04-26T07:39:53.088Z,74.30
2019-04-26T07:42:46.168Z,74.50
2019-04-26T07:45:49.790Z,73.70
2019-04-26T07:48:36.375Z,73.60
2019-04-26T07:51:33.580Z,74.10
2019-04-26T07:54:24.940Z,74.80
2019-04-26T07:57:19.475Z,74.60
2019-04-26T08:00:15.792Z,73.90
2019-04-26T08:02:49.066Z,74.10
2019-04-26T08:05:22.284Z,74.70
2019-04-26T08:07:57.017Z,75.00
2019-04-26T08:10:28.191Z,74.80
2019-04-26T08:13:08.346Z,74.80
2019-04-26T08:15:44.594Z,73.70
2019-04-26T08:18:16.752Z,73.60
2019-04-26T08:20:52.474Z,73.50
2019-04-26T08:23:39.298Z,73.40
2019-04-26T08:25:57.619Z,74.40
2019-04-26T08:28:28.262Z,73.50
2019-04-26T08:30:59.196Z,74.20
2019-04-26T08:33:34.428Z,73.60
2019-04-26T08:36:06.079Z,73.00
2019-04-26T08:38:37.529Z,74.10
2019-04-26T08:41:08.153Z,74.20
2019-04-26T08:43:56.067Z,74.60
2019-04-26T08:46:36.159Z,75.20
2019-04-26T08:49:39.114Z,76.00
2019-04-26T08:52:14.601Z,76.10
2019-04-26T08:54:45.182Z,76.00
2019-04-26T08:57:15.502Z,77.50
2019-04-26T08:59:47.103Z,80.20
2019-04-26T09:02:36.742Z,81.10
2019-04-26T09:05:11.836Z,81.70
2019-04-26T09:07:43.494Z,82.60
2019-04-26T09:10:15.024Z,82.50
2019-04-26T09:12:46.268Z,82.10
2019-04-26T09:15:17.779Z,81.80
2019-04-26T09:17:46.268Z,82.30
2019-04-26T09:20:22.442Z,82.00
2019-04-26T09:23:04.823Z,81.60
2019-04-26T09:25:39.033Z,81.10
2019-04-26T09:28:13.403Z,80.80
2019-04-26T09:30:47.441Z,80.20
2019-04-26T09:33:15.443Z,78.90
2019-04-26T09:35:44.025Z,78.90
2019-04-26T09:38:12.583Z,78.00
2019-04-26T09:40:41.110Z,78.20
2019-04-26T09:43:14.975Z,77.00
2019-04-26T09:45:48.100Z,76.70
2019-04-26T09:48:18.604Z,76.50
2019-04-26T09:50:48.717Z,76.20
2019-04-26T09:53:17.768Z,76.50
2019-04-26T09:55:46.219Z,76.00
2019-04-26T09:58:14.669Z,75.50
2019-04-26T10:00:48.344Z,74.80
2019-04-26T10:03:14.670Z,74.60
2019-04-26T10:05:43.283Z,74.60
2019-04-26T10:08:13.007Z,75.70
2019-04-26T10:10:42.259Z,74.10
2019-04-26T10:13:21.031Z,74.30
2019-04-26T10:15:53.968Z,74.50
2019-04-26T10:18:24.476Z,74.30
2019-04-26T10:20:52.855Z,74.40
2019-04-26T10:23:21.661Z,74.70
2019-04-26T10:25:51.994Z,75.40
2019-04-26T10:28:20.451Z,74.50
2019-04-26T10:31:13.512Z,73.90
2019-04-26T10:33:42.168Z,73.80
2019-04-26T10:36:10.802Z,74.60
2019-04-26T10:38:39.327Z,75.00
2019-04-26T10:41:08.132Z,74.40
2019-04-26T10:43:37.050Z,73.70
2019-04-26T10:46:07.478Z,73.40
2019-04-26T10:48:35.923Z,74.20
2019-04-26T10:51:07.463Z,74.80
2019-04-26T10:53:45.579Z,74.80
2019-04-26T10:56:24.184Z,74.40
2019-04-26T10:58:53.619Z,72.50
2019-04-26T11:01:22.341Z,72.30
2019-04-26T11:03:50.882Z,72.40
2019-04-26T11:06:19.336Z,72.10
2019-04-26T11:08:47.790Z,72.20
2019-04-26T11:11:16.685Z,71.90
2019-04-26T11:13:45.142Z,72.80
2019-04-26T11:16:13.660Z,71.60
2019-04-26T11:18:42.211Z,70.90
2019-04-26T11:21:10.748Z,71.80
2019-04-26T11:23:41.077Z,70.90
2019-04-26T11:26:10.615Z,70.00
2019-04-26T11:28:39.076Z,69.00
2019-04-26T11:31:07.534Z,69.10
2019-04-26T11:33:44.644Z,69.30
2019-04-26T11:36:07.409Z,68.00
2019-04-26T11:38:37.207Z,68.30
2019-04-26T11:41:06.909Z,67.80
2019-04-26T11:43:35.673Z,67.20
2019-04-26T11:46:05.002Z,66.50
2019-04-26T11:48:34.013Z,64.60
2019-04-26T11:51:02.476Z,63.90
2019-04-26T11:53:33.314Z,64.00
2019-04-26T11:56:04.436Z,63.40
2019-04-26T11:58:32.042Z,62.00
2019-04-26T12:01:02.268Z,59.60
2019-04-26T12:03:30.826Z,61.60
2019-04-26T12:06:00.999Z,61.70
2019-04-26T12:08:49.493Z,58.70
2019-04-26T12:11:19.774Z,60.50
2019-04-26T12:13:48.159Z,59.20
2019-04-26T12:16:18.674Z,61.40
2019-04-26T12:18:46.840Z,59.00
2019-04-26T12:21:15.397Z,60.00
2019-04-26T12:23:43.837Z,60.40
2019-04-26T12:26:12.362Z,56.40
2019-04-26T12:28:41.361Z,55.50
2019-04-26T12:31:09.957Z,54.70
2019-04-26T12:33:39.105Z,54.50
2019-04-26T12:36:09.626Z,52.80
2019-04-26T12:38:39.222Z,52.10
2019-04-26T12:41:07.773Z,50.80
2019-04-26T12:43:36.541Z,49.50
2019-04-26T12:46:27.185Z,51.10
2019-04-26T12:48:53.404Z,51.60
2019-04-26T12:51:22.263Z,50.80
2019-04-26T12:53:50.741Z,49.90
2019-04-26T12:56:19.199Z,51.30
2019-04-26T12:58:51.368Z,50.70
2019-04-26T13:01:20.083Z,49.20
2019-04-26T13:04:05.760Z,49.10
2019-04-26T13:06:39.467Z,51.10
2019-04-26T13:09:10.996Z,50.30
2019-04-26T13:11:52.793Z,51.10
2019-04-26T13:14:25.896Z,53.00
2019-04-26T13:16:57.249Z,49.90
2019-04-26T13:19:25.854Z,50.30
2019-04-26T13:21:54.313Z,49.90
2019-04-26T13:24:23.057Z,49.70
2019-04-26T13:26:51.886Z,50.80
2019-04-26T13:29:20.671Z,50.70
2019-04-26T13:31:49.467Z,52.50
2019-04-26T13:34:17.995Z,55.10
2019-04-26T13:36:46.447Z,53.60
2019-04-26T13:39:17.849Z,53.80
2019-04-26T13:41:45.139Z,49.60
2019-04-26T13:44:13.599Z,48.80
2019-04-26T13:46:49.663Z,50.50
2019-04-26T13:49:20.091Z,51.60
2019-04-26T13:51:48.623Z,51.60
2019-04-26T13:54:21.113Z,50.90
2019-04-26T13:56:47.287Z,49.10
2019-04-26T13:59:15.903Z,47.40
2019-04-26T14:01:44.362Z,47.80
2019-04-26T14:04:12.835Z,51.20
2019-04-26T14:06:41.379Z,53.40
2019-04-26T14:09:11.481Z,54.10
2019-04-26T14:11:39.939Z,53.20
2019-04-26T14:14:08.490Z,53.80
2019-04-26T14:16:37.479Z,51.70
2019-04-26T14:19:06.091Z,51.20
2019-04-26T14:21:34.931Z,49.60
2019-04-26T14:24:10.995Z,47.80
2019-04-26T14:26:41.627Z,47.70
2019-04-26T14:29:10.153Z,48.90
2019-04-26T14:31:38.685Z,50.00
2019-04-26T14:34:07.234Z,48.00
2019-04-26T14:36:36.078Z,48.70
2019-04-26T14:39:10.540Z,46.80
2019-04-26T14:41:38.058Z,49.80
2019-04-26T14:44:15.384Z,52.20
2019-04-26T14:46:48.180Z,52.60
2019-04-26T14:49:07.047Z,51.30
2019-04-26T14:51:35.991Z,51.70
2019-04-26T14:54:07.347Z,53.00
2019-04-26T14:56:35.020Z,52.40
2019-04-26T14:59:08.151Z,50.90
2019-04-26T15:01:52.278Z,49.30
2019-04-26T15:04:39.120Z,52.20
2019-04-26T15:07:08.029Z,51.70
2019-04-26T15:09:36.818Z,48.60
2019-04-26T15:12:07.743Z,49.70
2019-04-26T15:14:36.062Z,50.60
2019-04-26T15:17:04.560Z,49.30
2019-04-26T15:19:35.172Z,50.80
2019-04-26T15:22:10.134Z,50.90
2019-04-26T15:25:13.420Z,51.50
2019-04-26T15:27:42.132Z,52.00
2019-04-26T15:30:13.321Z,54.30
2019-04-26T15:32:42.661Z,54.50
2019-04-26T15:35:15.665Z,52.00
2019-04-26T15:37:42.263Z,52.40
2019-04-26T15:40:16.182Z,54.60
2019-04-26T15:42:58.734Z,54.50
2019-04-26T15:45:38.761Z,52.80
2019-04-26T15:48:24.652Z,55.30
2019-04-26T15:50:54.873Z,55.00
2019-04-26T15:53:23.957Z,54.40
2019-04-26T15:55:53.105Z,55.00
2019-04-26T15:58:21.628Z,56.90
2019-04-26T16:00:50.686Z,56.10
2019-04-26T16:03:19.172Z,56.40
2019-04-26T16:05:47.697Z,57.50
2019-04-26T16:08:16.152Z,59.50
2019-04-26T16:10:44.636Z,60.00
2019-04-26T16:13:20.905Z,61.20
2019-04-26T16:15:48.639Z,60.90
2019-04-26T16:18:17.091Z,61.20
2019-04-26T16:20:44.513Z,62.90
2019-04-26T16:23:13.602Z,60.80
2019-04-26T16:25:42.802Z,61.80
2019-04-26T16:28:30.659Z,61.10
2019-04-26T16:31:16.551Z,61.80
2019-04-26T16:33:46.673Z,62.40
2019-04-26T16:36:15.487Z,62.90
2019-04-26T16:38:43.976Z,61.20
2019-04-26T16:41:12.442Z,62.90
2019-04-26T16:43:52.243Z,61.60
2019-04-26T16:46:14.758Z,61.00
2019-04-26T16:48:44.195Z,61.40
2019-04-26T16:51:14.253Z,61.90
2019-04-26T16:54:02.131Z,62.90
2019-04-26T16:56:12.659Z,64.20
2019-04-26T16:58:44.916Z,64.30
2019-04-26T17:01:12.400Z,65.50
2019-04-26T17:03:45.197Z,72.50
2019-04-26T17:06:14.294Z,70.70
2019-04-26T17:08:49.188Z,63.80
2019-04-26T17:11:14.067Z,62.80
2019-04-26T17:13:49.255Z,61.60
2019-04-26T17:16:12.886Z,61.40
2019-04-26T17:18:42.660Z,61.40
2019-04-26T17:21:12.748Z,62.30
2019-04-26T17:23:46.033Z,63.20
2019-04-26T17:26:16.552Z,65.70
2019-04-26T17:28:45.243Z,65.50
2019-04-26T17:31:13.796Z,67.20
2019-04-26T17:33:42.615Z,66.90
2019-04-26T17:36:15.244Z,66.10
2019-04-26T17:38:42.075Z,65.10
2019-04-26T17:41:13.393Z,64.00
2019-04-26T17:43:46.877Z,65.10
2019-04-26T17:46:14.657Z,64.50
2019-04-26T17:48:44.795Z,64.60
2019-04-26T17:51:18.444Z,65.80
2019-04-26T17:53:43.970Z,64.40
2019-04-26T17:56:13.427Z,63.10
2019-04-26T17:58:51.250Z,63.90
2019-04-26T18:01:29.310Z,64.30
2019-04-26T18:03:50.713Z,66.50
2019-04-26T18:06:15.280Z,66.50
2019-04-26T18:08:51.937Z,65.80
2019-04-26T18:11:19.561Z,66.20
2019-04-26T18:13:47.178Z,66.90
2019-04-26T18:16:17.753Z,66.10
2019-04-26T18:18:53.945Z,66.50
2019-04-26T18:21:35.013Z,66.10
2019-04-26T18:24:03.708Z,66.50
2019-04-26T18:26:32.789Z,66.40
2019-04-26T18:29:01.616Z,67.30
2019-04-26T18:31:30.407Z,68.50
2019-04-26T18:34:00.586Z,68.00
2019-04-26T18:36:32.074Z,68.50
2019-04-26T18:38:59.443Z,69.80
2019-04-26T18:41:28.956Z,68.60
2019-04-26T18:43:59.911Z,67.90
2019-04-26T18:46:35.678Z,67.70
2019-04-26T18:49:04.394Z,66.50
2019-04-26T18:51:33.462Z,64.60
2019-04-26T18:54:05.083Z,65.60
2019-04-26T18:56:39.635Z,67.50
2019-04-26T18:59:07.388Z,70.00
2019-04-26T19:01:40.654Z,70.40
2019-04-26T19:04:12.492Z,70.30
2019-04-26T19:06:37.970Z,68.90
2019-04-26T19:09:08.141Z,69.30
2019-04-26T19:11:37.029Z,69.60
2019-04-26T19:14:16.054Z,66.90
2019-04-26T19:16:50.637Z,67.40
2019-04-26T19:19:25.968Z,69.40
2019-04-26T19:21:55.739Z,70.60
2019-04-26T19:24:24.332Z,70.60
2019-04-26T19:26:53.204Z,71.20
2019-04-26T19:29:29.314Z,72.80
2019-04-26T19:31:52.383Z,72.40
2019-04-26T19:34:21.907Z,72.40
2019-04-26T19:36:52.351Z,73.30
2019-04-26T19:39:30.445Z,73.10
2019-04-26T19:41:57.484Z,71.10
2019-04-26T19:44:24.056Z,71.40
2019-04-26T19:47:06.531Z,71.90
2019-04-26T19:49:52.430Z,72.90
2019-04-26T19:52:39.620Z,73.00
2019-04-26T19:55:17.441Z,72.90
2019-04-26T19:57:54.054Z,73.20
2019-04-26T20:00:22.578Z,71.70
2019-04-26T20:02:52.323Z,72.30
2019-04-26T20:05:22.520Z,73.00
2019-04-26T20:07:51.877Z,72.60
2019-04-26T20:10:20.579Z,73.10
2019-04-26T20:12:49.056Z,72.00
2019-04-26T20:15:26.066Z,72.30
2019-04-26T20:17:52.399Z,72.30
2019-04-26T20:20:21.447Z,71.40
2019-04-26T20:22:48.202Z,72.30
2019-04-26T20:25:16.694Z,73.30
2019-04-26T20:27:45.221Z,72.30
2019-04-26T20:30:18.226Z,71.80
2019-04-26T20:32:45.583Z,71.70
2019-04-26T20:35:19.912Z,72.30
2019-04-26T20:37:48.369Z,71.90
2019-04-26T20:40:22.170Z,71.50
2019-04-26T20:42:47.459Z,71.50
2019-04-26T20:45:17.017Z,72.00
2019-04-26T20:47:46.777Z,71.50
2019-04-26T20:50:16.415Z,71.70
2019-04-26T20:52:45.534Z,71.50
2019-04-26T20:55:14.314Z,70.90
2019-04-26T20:57:44.765Z,71.20
2019-04-26T21:00:14.108Z,72.60
2019-04-26T21:02:42.759Z,71.10
2019-04-26T21:05:14.681Z,71.00
2019-04-26T21:07:45.912Z,71.60
2019-04-26T21:10:14.623Z,71.20
2019-04-26T21:12:42.539Z,72.70
2019-04-26T21:15:11.662Z,72.10
2019-04-26T21:17:41.512Z,72.40
2019-04-26T21:20:10.964Z,72.40
2019-04-26T21:22:39.419Z,73.30
2019-04-26T21:25:12.684Z,72.20
2019-04-26T21:27:45.533Z,72.50
2019-04-26T21:30:15.968Z,70.90
2019-04-26T21:32:56.033Z,72.30
2019-04-26T21:35:29.831Z,70.80
2019-04-26T21:37:59.958Z,70.70
2019-04-26T21:40:36.401Z,70.40
2019-04-26T21:43:04.882Z,70.20
2019-04-26T21:45:34.013Z,72.20
2019-04-26T21:48:06.801Z,71.30
2019-04-26T21:50:35.779Z,71.40
2019-04-26T21:53:06.745Z,71.30
2019-04-26T21:55:38.354Z,71.20
2019-04-26T21:58:05.146Z,72.40
2019-04-26T22:00:41.571Z,71.90
2019-04-26T22:03:12.605Z,70.70
2019-04-26T22:05:43.971Z,71.40
2019-04-26T22:08:10.484Z,71.50
2019-04-26T22:10:44.538Z,69.90
2019-04-26T22:13:14.920Z,71.50
2019-04-26T22:16:03.472Z,70.70
2019-04-26T22:18:33.852Z,71.80
2019-04-26T22:21:03.938Z,72.10
2019-04-26T22:23:36.650Z,73.20
2019-04-26T22:26:08.550Z,74.90
2019-04-26T22:28:37.666Z,77.50
2019-04-26T22:31:08.449Z,77.20
2019-04-26T22:33:36.463Z,78.10
2019-04-26T22:36:05.323Z,78.60
2019-04-26T22:38:34.106Z,76.50
2019-04-26T22:41:03.205Z,76.50
2019-04-26T22:43:36.106Z,76.80
2019-04-26T22:46:06.325Z,77.30
2019-04-26T22:48:36.488Z,75.70
2019-04-26T22:51:05.348Z,74.80
2019-04-26T22:53:33.833Z,74.40
2019-04-26T22:56:04.599Z,74.10
2019-04-26T22:58:33.800Z,73.60
2019-04-26T23:01:03.537Z,75.10
2019-04-26T23:03:36.557Z,76.50
2019-04-26T23:06:03.748Z,77.20
2019-04-26T23:08:35.255Z,77.50
2019-04-26T23:11:09.246Z,77.30
2019-04-26T23:13:44.630Z,77.40
2019-04-26T23:16:21.184Z,76.80
2019-04-26T23:19:03.756Z,75.70
2019-04-26T23:21:35.792Z,74.70
2019-04-26T23:24:04.455Z,74.90
2019-04-26T23:26:33.454Z,75.20
2019-04-26T23:29:03.647Z,74.40
2019-04-26T23:31:33.466Z,74.80
2019-04-26T23:34:02.976Z,73.40
2019-04-26T23:36:31.992Z,75.30
2019-04-26T23:39:00.573Z,76.00
2019-04-26T23:41:29.072Z,74.70
2019-04-26T23:44:02.899Z,73.80
2019-04-26T23:46:27.766Z,74.10
2019-04-26T23:48:56.247Z,73.90
2019-04-26T23:51:26.225Z,75.30
2019-04-26T23:53:57.649Z,76.10
2019-04-26T23:56:25.453Z,75.80
2019-04-26T23:58:54.027Z,74.50
